createdAt,value
2023-09-05T00:10:49.817Z,14.36
2023-09-05T00:50:54.184Z,14.1
2023-09-05T01:10:50.405Z,13.91
2023-09-05T01:30:50.537Z,13.78
2023-09-05T01:50:49.976Z,13.57
2023-09-05T02:10:50.023Z,13.3
2023-09-05T02:30:50.783Z,13.17
2023-09-05T02:50:50.110Z,12.95
2023-09-05T03:10:50.050Z,12.77
2023-09-05T03:30:50.217Z,12.65
2023-09-05T03:50:50.349Z,12.49
2023-09-05T04:10:50.399Z,12.39
2023-09-05T04:30:50.644Z,12.24
2023-09-05T04:50:50.221Z,12.15
2023-09-05T05:10:51.550Z,12.12
2023-09-05T05:30:50.512Z,12.23
2023-09-05T05:50:50.878Z,12.6
2023-09-05T06:10:50.515Z,13.23
2023-09-05T06:30:51.104Z,13.95
2023-09-05T06:50:50.580Z,14.9
2023-09-05T07:10:50.544Z,16.36
2023-09-05T07:30:50.627Z,17.06
2023-09-05T07:50:52.514Z,17.57
2023-09-05T08:10:50.641Z,18.19
2023-09-05T08:30:50.793Z,19.12
2023-09-05T08:50:50.697Z,20.01
2023-09-05T09:10:50.745Z,21
2023-09-05T09:30:51.221Z,21.61
2023-09-05T09:50:50.780Z,22.06
2023-09-05T10:10:50.815Z,23.13
2023-09-05T10:30:50.781Z,25.46
2023-09-05T10:50:50.811Z,27.59
2023-09-05T11:10:50.862Z,28.35
2023-09-05T11:30:50.863Z,28.52
2023-09-05T11:50:51.046Z,28.75
2023-09-05T12:10:51.107Z,29.71
2023-09-05T12:30:52.079Z,28.56
2023-09-05T12:50:51.409Z,31.02
2023-09-05T13:10:52.591Z,31.44
2023-09-05T13:30:51.040Z,31.79
2023-09-05T13:50:51.560Z,31.14
2023-09-05T14:10:51.155Z,29.1
2023-09-05T14:30:51.570Z,28.5
2023-09-05T14:50:51.321Z,28.24
2023-09-05T15:10:51.428Z,27.64
2023-09-05T15:30:51.304Z,27.2
2023-09-05T15:50:52.127Z,26.63
2023-09-05T16:10:51.214Z,26.19
2023-09-05T16:30:51.599Z,25.7
2023-09-05T16:50:51.670Z,25.39
2023-09-05T17:10:51.397Z,24.8
2023-09-05T17:30:52.339Z,24.19
2023-09-05T17:50:51.323Z,23.3
2023-09-05T18:10:51.819Z,21.99
2023-09-05T18:30:52.834Z,20.85
2023-09-05T18:50:51.763Z,20.08
2023-09-05T19:10:51.465Z,19.32
2023-09-05T19:30:53.892Z,18.71
2023-09-05T19:50:51.505Z,18.15
2023-09-05T20:10:51.494Z,17.65
2023-09-05T20:30:51.965Z,17.38
2023-09-05T20:50:51.926Z,17
2023-09-05T21:10:51.642Z,16.59
2023-09-05T21:30:52.821Z,16.2
2023-09-05T21:50:51.692Z,15.91
2023-09-05T22:10:51.847Z,15.55
2023-09-05T22:30:51.854Z,15.22
2023-09-05T22:50:51.755Z,14.87
2023-09-05T23:10:51.789Z,14.71
2023-09-05T23:30:51.801Z,14.51
2023-09-05T23:50:51.921Z,14.28
